createdAt,value
2022-09-12T00:01:17.118Z,101373.63
2022-09-12T00:03:50.642Z,101366.06
2022-09-12T00:06:25.870Z,101370.13
2022-09-12T00:09:00.542Z,101366.25
2022-09-12T00:11:33.661Z,101367.81
2022-09-12T00:14:10.101Z,101364.28
2022-09-12T00:16:43.320Z,101360.22
2022-09-12T00:19:16.265Z,101364.94
2022-09-12T00:21:48.682Z,101359.59
2022-09-12T00:24:47.582Z,101367.00
2022-09-12T00:27:57.742Z,101364.47
2022-09-12T00:30:33.333Z,101360.97
2022-09-12T00:33:05.961Z,101362.69
2022-09-12T00:35:38.580Z,101365.75
2022-09-12T00:38:10.902Z,101361.50
2022-09-12T00:40:44.141Z,101366.09
2022-09-12T00:43:17.781Z,101361.84
2022-09-12T00:45:53.788Z,101362.53
2022-09-12T00:48:35.320Z,101359.34
2022-09-12T00:51:08.303Z,101360.53
2022-09-12T00:53:42.082Z,101359.00
2022-09-12T00:56:19.422Z,101354.78
2022-09-12T00:58:57.585Z,101359.22
2022-09-12T01:01:33.443Z,101359.72
2022-09-12T01:04:06.761Z,101360.72
2022-09-12T01:06:43.642Z,101362.06
2022-09-12T01:09:20.462Z,101361.59
2022-09-12T01:11:55.244Z,101358.34
2022-09-12T01:14:27.442Z,101355.81
2022-09-12T01:17:02.721Z,101362.44
2022-09-12T01:20:02.381Z,101352.47
2022-09-12T01:23:10.449Z,101354.34
2022-09-12T01:25:53.982Z,101360.25
2022-09-12T01:29:01.381Z,101358.38
2022-09-12T01:31:42.543Z,101357.00
2022-09-12T01:34:26.761Z,101359.03
2022-09-12T01:37:07.162Z,101356.84
2022-09-12T01:39:51.496Z,101350.72
2022-09-12T01:42:30.546Z,101352.44
2022-09-12T01:45:09.362Z,101354.63
2022-09-12T01:47:51.343Z,101351.25
2022-09-12T01:50:28.583Z,101344.00
2022-09-12T01:53:05.584Z,101344.00
2022-09-12T01:55:41.742Z,101342.31
2022-09-12T01:58:19.262Z,101338.75
2022-09-12T02:00:58.334Z,101346.03
2022-09-12T02:03:38.325Z,101349.56
2022-09-12T02:06:22.523Z,101340.63
2022-09-12T02:08:58.841Z,101345.50
2022-09-12T02:11:35.302Z,101346.00
2022-09-12T02:14:13.222Z,101354.97
2022-09-12T02:16:52.361Z,101350.56
2022-09-12T02:19:32.901Z,101347.38
2022-09-12T02:22:15.549Z,101350.41
2022-09-12T02:24:53.022Z,101353.25
2022-09-12T02:27:29.781Z,101350.41
2022-09-12T02:30:02.401Z,101341.78
2022-09-12T02:32:39.863Z,101347.69
2022-09-12T02:35:24.022Z,101339.25
2022-09-12T02:38:04.381Z,101342.81
2022-09-12T02:40:38.061Z,101341.78
2022-09-12T02:43:11.363Z,101344.13
2022-09-12T02:45:43.995Z,101338.75
2022-09-12T02:48:21.702Z,101351.53
2022-09-12T02:50:57.603Z,101351.19
2022-09-12T02:53:31.005Z,101343.94
2022-09-12T02:56:03.664Z,101341.06
2022-09-12T02:58:36.821Z,101351.03
2022-09-12T03:01:16.389Z,101343.94
2022-09-12T03:04:09.322Z,101354.91
2022-09-12T03:06:53.985Z,101344.28
2022-09-12T03:09:38.003Z,101357.09
2022-09-12T03:12:22.609Z,101347.63
2022-09-12T03:15:11.185Z,101351.53
2022-09-12T03:18:01.721Z,101346.81
2022-09-12T03:20:53.643Z,101345.44
2022-09-12T03:23:37.821Z,101346.75
2022-09-12T03:26:16.264Z,101350.16
2022-09-12T08:07:44.862Z,101410.75
2022-09-12T08:10:17.523Z,101420.13
2022-09-12T08:12:50.723Z,101416.22
2022-09-12T08:15:23.521Z,101427.78
2022-09-12T08:17:59.762Z,101414.19
2022-09-12T08:20:33.321Z,101412.94
2022-09-12T08:23:08.121Z,101415.06
2022-09-12T08:25:40.883Z,101417.94
2022-09-12T08:28:13.169Z,101415.94
2022-09-12T08:30:45.749Z,101413.56
2022-09-12T08:33:18.520Z,101419.91
2022-09-12T08:35:51.326Z,101417.13
2022-09-12T08:38:26.242Z,101411.59
2022-09-12T08:41:07.363Z,101412.81
2022-09-12T08:43:57.066Z,101412.19
2022-09-12T08:46:38.487Z,101412.00
2022-09-12T08:49:35.942Z,101416.91
2022-09-12T08:52:14.422Z,101418.44
2022-09-12T08:54:50.349Z,101416.31
2022-09-12T08:57:23.272Z,101408.47
2022-09-12T08:59:56.543Z,101405.50
2022-09-12T09:02:54.316Z,101405.59
2022-09-12T09:05:35.551Z,101407.91
2022-09-12T09:08:22.341Z,101405.41
2022-09-12T09:11:07.660Z,101399.28
2022-09-12T09:14:07.024Z,101403.81
2022-09-12T09:16:42.744Z,101406.31
2022-09-12T09:19:20.823Z,101395.16
2022-09-12T09:21:57.862Z,101395.81
2022-09-12T09:24:37.023Z,101398.88
2022-09-12T09:27:39.395Z,101399.53
2022-09-12T09:30:18.900Z,101399.25
2022-09-12T09:32:55.526Z,101397.22
2022-09-12T09:35:42.147Z,101386.16
2022-09-12T09:38:26.342Z,101385.88
2022-09-12T09:41:14.464Z,101383.16
2022-09-12T09:43:49.421Z,101387.34
2022-09-12T09:46:22.125Z,101384.41
2022-09-12T09:48:55.465Z,101387.25
2022-09-12T09:51:34.240Z,101382.50
2022-09-12T09:54:14.140Z,101382.88
2022-09-12T09:56:47.543Z,101379.19
2022-09-12T09:59:28.901Z,101380.22
2022-09-12T10:02:04.130Z,101369.75
2022-09-12T10:04:41.368Z,101377.31
2022-09-12T10:07:23.262Z,101372.28
2022-09-12T10:10:09.703Z,101365.00
2022-09-12T10:12:42.393Z,101362.38
2022-09-12T10:15:26.561Z,101367.25
2022-09-12T10:18:00.475Z,101367.00
2022-09-12T10:20:38.861Z,101369.16
2022-09-12T10:23:32.742Z,101366.03
2022-09-12T10:26:08.740Z,101367.53
2022-09-12T10:28:43.947Z,101365.59
2022-09-12T10:31:29.236Z,101353.34
2022-09-12T10:34:03.819Z,101353.25
2022-09-12T10:36:41.820Z,101353.13
2022-09-12T10:39:22.780Z,101359.19
2022-09-12T10:41:54.917Z,101358.38
2022-09-12T10:44:31.102Z,101365.25
2022-09-12T10:47:24.660Z,101358.28
2022-09-12T10:49:57.623Z,101356.25
2022-09-12T10:52:29.781Z,101351.94
2022-09-12T10:55:02.869Z,101352.75
2022-09-12T10:57:57.620Z,101350.38
2022-09-12T11:00:31.461Z,101347.41
2022-09-12T11:03:18.660Z,101349.28
2022-09-12T11:06:01.030Z,101354.38
2022-09-12T11:08:57.783Z,101350.31
2022-09-12T11:11:55.301Z,101346.13
2022-09-12T11:14:38.622Z,101343.50
2022-09-12T11:17:26.340Z,101350.38
2022-09-12T11:20:33.750Z,101351.94
2022-09-12T11:23:31.462Z,101351.09
2022-09-12T11:26:13.062Z,101345.69
2022-09-12T11:28:56.261Z,101348.53
2022-09-12T11:31:56.020Z,101346.00
2022-09-12T11:34:40.781Z,101350.16
2022-09-12T11:37:33.143Z,101338.25
2022-09-12T11:40:16.756Z,101334.84
2022-09-12T11:42:52.980Z,101334.41
2022-09-12T11:45:30.221Z,101330.00
2022-09-12T11:48:08.940Z,101319.75
2022-09-12T11:50:41.583Z,101319.66
2022-09-12T11:53:23.261Z,101327.88
2022-09-12T12:01:13.237Z,101314.31
2022-09-12T12:03:47.177Z,101310.06
2022-09-12T12:06:22.780Z,101307.22
2022-09-12T12:08:57.622Z,101309.50
2022-09-12T12:11:34.583Z,101306.19
2022-09-12T12:14:09.711Z,101301.28
2022-09-12T12:16:43.594Z,101303.56
2022-09-12T12:19:34.943Z,101288.06
2022-09-12T12:22:18.582Z,101293.00
2022-09-12T12:25:07.802Z,101287.44
2022-09-12T12:27:56.970Z,101277.59
2022-09-12T12:31:05.781Z,101285.50
2022-09-12T12:33:58.765Z,101286.66
2022-09-12T12:36:38.737Z,101285.78
2022-09-12T12:39:50.618Z,101287.84
2022-09-12T12:43:09.063Z,101289.31
2022-09-12T12:46:18.425Z,101287.66
2022-09-12T12:49:11.711Z,101293.13
2022-09-12T12:51:57.806Z,101284.75
2022-09-12T12:54:57.058Z,101288.59
2022-09-12T12:57:36.811Z,101288.31
2022-09-12T13:00:11.962Z,101285.72
2022-09-12T13:02:56.210Z,101288.63
2022-09-12T13:05:30.925Z,101283.59
2022-09-12T13:08:10.445Z,101282.31
2022-09-12T13:10:52.084Z,101284.91
2022-09-12T13:13:29.283Z,101283.50
2022-09-12T13:16:01.998Z,101271.84
2022-09-12T13:18:47.571Z,101269.28
2022-09-12T13:21:24.166Z,101274.16
2022-09-12T13:24:05.405Z,101268.75
2022-09-12T13:26:39.460Z,101275.75
2022-09-12T13:29:17.843Z,101264.56
2022-09-12T13:31:52.563Z,101260.56
2022-09-12T13:34:30.803Z,101262.72
2022-09-12T13:37:24.242Z,101250.53
2022-09-12T13:40:05.824Z,101248.84
2022-09-12T13:42:43.762Z,101254.00
2022-09-12T13:45:23.082Z,101242.44
2022-09-12T13:48:00.441Z,101247.13
2022-09-12T13:50:42.763Z,101244.91
2022-09-12T13:53:19.284Z,101243.38
2022-09-12T13:55:55.602Z,101243.59
2022-09-12T13:58:29.881Z,101235.88
2022-09-12T14:01:17.813Z,101238.25
2022-09-12T14:06:53.322Z,101240.81
2022-09-12T14:09:36.122Z,101233.69
2022-09-12T14:12:18.644Z,101233.81
2022-09-12T14:14:54.205Z,101232.59
2022-09-12T14:17:31.962Z,101240.66
2022-09-12T14:20:25.121Z,101228.28
2022-09-12T14:29:19.322Z,101227.78
2022-09-12T14:32:05.124Z,101233.19
2022-09-12T14:34:37.163Z,101222.25
2022-09-12T14:37:10.602Z,101229.00
2022-09-12T14:39:48.047Z,101220.94
2022-09-12T14:42:23.523Z,101220.94
2022-09-12T14:44:59.925Z,101217.59
2022-09-12T14:47:40.081Z,101226.56
2022-09-12T14:50:20.801Z,101224.16
2022-09-12T14:53:07.241Z,101211.47
2022-09-12T14:55:48.242Z,101209.94
2022-09-12T14:58:28.723Z,101211.59
2022-09-12T15:01:03.135Z,101205.78
2022-09-12T15:03:37.882Z,101202.78
2022-09-12T15:06:23.765Z,101204.47
2022-09-12T15:08:58.003Z,101194.59
2022-09-12T15:11:33.932Z,101196.78
2022-09-12T15:14:15.803Z,101198.06
2022-09-12T15:16:48.010Z,101196.03
2022-09-12T15:19:20.484Z,101198.63
2022-09-12T15:21:52.374Z,101203.09
2022-09-12T15:24:24.773Z,101197.78
2022-09-12T15:26:59.455Z,101198.50
2022-09-12T15:29:31.694Z,101197.78
2022-09-12T15:32:04.732Z,101195.66
2022-09-12T15:34:40.094Z,101194.84
2022-09-12T15:37:16.076Z,101190.75
2022-09-12T15:39:48.508Z,101198.59
2022-09-12T15:42:32.417Z,101190.53
2022-09-12T15:45:05.179Z,101184.19
2022-09-12T15:47:36.758Z,101187.44
2022-09-12T15:50:11.338Z,101187.44
2022-09-12T15:52:42.996Z,101178.34
2022-09-12T15:55:20.198Z,101187.59
2022-09-12T15:57:54.719Z,101180.84
2022-09-12T16:00:27.418Z,101177.34
2022-09-12T16:02:59.137Z,101179.50
2022-09-12T16:05:31.297Z,101177.75
2022-09-12T16:08:03.220Z,101176.56
2022-09-12T16:10:35.256Z,101168.09
2022-09-12T16:13:20.185Z,101173.38
2022-09-12T16:16:47.037Z,101170.19
2022-09-12T16:19:35.818Z,101169.56
2022-09-12T16:22:08.338Z,101164.69
2022-09-12T16:27:55.577Z,101161.34
2022-09-12T16:30:38.878Z,101155.09
2022-09-12T16:33:10.917Z,101158.66
2022-09-12T16:35:42.718Z,101158.47
2022-09-12T16:38:14.598Z,101145.28
2022-09-12T16:40:46.257Z,101149.22
2022-09-12T16:43:18.956Z,101145.03
2022-09-12T16:45:53.158Z,101145.63
2022-09-12T16:48:25.117Z,101138.22
2022-09-12T16:51:01.809Z,101134.22
2022-09-12T16:53:34.617Z,101135.78
2022-09-12T16:56:07.722Z,101141.03
2022-09-12T16:58:42.232Z,101132.47
2022-09-12T17:01:18.971Z,101129.22
2022-09-12T17:03:51.290Z,101124.44
2022-09-12T17:06:23.400Z,101124.44
2022-09-12T17:08:56.618Z,101133.53
2022-09-12T17:11:30.796Z,101125.00
2022-09-12T17:14:05.827Z,101127.78
2022-09-12T17:16:51.870Z,101121.06
2022-09-12T17:19:26.803Z,101123.44
2022-09-12T17:21:59.261Z,101115.25
2022-09-12T17:24:31.338Z,101112.97
2022-09-12T17:27:02.965Z,101117.19
2022-09-12T17:29:36.076Z,101120.34
2022-09-12T17:32:14.411Z,101106.06
2022-09-12T17:34:48.838Z,101110.72
2022-09-12T17:37:20.676Z,101113.25
2022-09-12T17:39:52.671Z,101116.41
2022-09-12T17:42:24.678Z,101116.84
2022-09-12T17:44:58.599Z,101120.00
2022-09-12T17:47:33.297Z,101116.66
2022-09-12T17:50:30.291Z,101118.97
2022-09-12T17:52:57.926Z,101121.31
2022-09-12T17:55:32.339Z,101123.16
2022-09-12T17:58:04.018Z,101124.03
2022-09-12T18:00:48.116Z,101137.63
2022-09-12T18:03:25.795Z,101141.63
2022-09-12T18:06:03.778Z,101133.84
2022-09-12T18:08:35.537Z,101135.13
2022-09-12T18:11:11.078Z,101139.09
2022-09-12T18:13:42.821Z,101137.84
2022-09-12T18:16:16.609Z,101132.38
2022-09-12T18:18:51.453Z,101130.28
2022-09-12T18:21:24.024Z,101130.69
2022-09-12T18:23:55.564Z,101130.50
2022-09-12T18:26:28.657Z,101114.78
2022-09-12T18:29:01.145Z,101123.16
2022-09-12T18:31:34.038Z,101122.50
2022-09-12T18:34:12.924Z,101116.88
2022-09-12T18:36:46.256Z,101120.63
2022-09-12T18:39:18.762Z,101122.91
2022-09-12T18:41:50.905Z,101113.69
2022-09-12T18:44:23.043Z,101120.75
2022-09-12T18:46:55.504Z,101117.38
2022-09-12T18:49:30.264Z,101122.00
2022-09-12T18:52:02.425Z,101115.28
2022-09-12T18:54:34.285Z,101112.53
2022-09-12T18:57:07.026Z,101114.63
2022-09-12T18:59:38.924Z,101105.59
2022-09-12T19:02:15.203Z,101106.84
2022-09-12T19:04:50.008Z,101095.72
2022-09-12T19:07:22.184Z,101096.53
2022-09-12T19:09:54.212Z,101089.00
2022-09-12T19:12:27.804Z,101090.63
2022-09-12T19:14:59.742Z,101085.59
2022-09-12T19:17:32.169Z,101086.00
2022-09-12T19:20:07.471Z,101080.91
2022-09-12T19:22:39.649Z,101081.72
2022-09-12T19:25:12.471Z,101087.13
2022-09-12T19:27:44.751Z,101087.22
2022-09-12T19:30:17.857Z,101082.59
2022-09-12T19:32:50.219Z,101082.19
2022-09-12T19:35:24.852Z,101077.34
2022-09-12T19:37:57.258Z,101075.81
2022-09-12T19:40:29.037Z,101077.09
2022-09-12T19:43:01.140Z,101068.94
2022-09-12T19:45:33.027Z,101063.69
2022-09-12T19:48:05.938Z,101073.75
2022-09-12T19:50:40.536Z,101077.28
2022-09-12T19:53:13.089Z,101078.06
2022-09-12T19:55:45.112Z,101072.22
2022-09-12T19:58:17.387Z,101071.13
2022-09-12T20:00:49.320Z,101072.09
2022-09-12T20:03:21.509Z,101062.97
2022-09-12T20:05:56.219Z,101060.66
2022-09-12T20:08:29.577Z,101064.56
2022-09-12T20:11:01.500Z,101060.78
2022-09-12T20:13:33.767Z,101059.75
2022-09-12T20:16:20.413Z,101054.59
2022-09-12T20:18:57.747Z,101056.31
2022-09-12T20:21:36.216Z,101046.25
2022-09-12T20:24:10.590Z,101051.38
2022-09-12T20:26:43.014Z,101049.38
2022-09-12T20:29:15.558Z,101064.16
2022-09-12T20:31:47.853Z,101056.31
2022-09-12T20:34:23.444Z,101055.13
2022-09-12T20:36:57.989Z,101054.66
2022-09-12T20:39:53.777Z,101041.97
2022-09-12T20:42:25.742Z,101043.28
2022-09-12T20:44:58.079Z,101046.28
2022-09-12T20:47:30.042Z,101048.38
2022-09-12T20:50:02.280Z,101048.75
2022-09-12T20:52:37.114Z,101043.13
2022-09-12T20:55:10.493Z,101041.38
2022-09-12T20:57:42.586Z,101039.78
2022-09-12T21:00:16.161Z,101034.00
2022-09-12T21:02:49.588Z,101034.91
2022-09-12T21:05:21.575Z,101035.34
2022-09-12T21:07:55.838Z,101037.41
2022-09-12T21:10:28.016Z,101037.03
2022-09-12T21:12:59.582Z,101027.16
2022-09-12T21:15:31.713Z,101032.22
2022-09-12T21:18:03.387Z,101025.06
2022-09-12T21:20:35.408Z,101030.28
2022-09-12T21:23:09.772Z,101028.06
2022-09-12T21:25:49.342Z,101024.66
2022-09-12T21:28:24.707Z,101023.81
2022-09-12T21:30:56.667Z,101022.13
2022-09-12T21:33:28.474Z,101027.63
2022-09-12T21:36:05.744Z,101021.53
2022-09-12T21:38:40.160Z,101022.59
2022-09-12T21:41:13.991Z,101017.56
2022-09-12T21:43:46.612Z,101022.09
2022-09-12T21:46:18.854Z,101022.66
2022-09-12T21:48:50.550Z,101021.00
2022-09-12T21:51:22.812Z,101018.69
2022-09-12T21:53:57.018Z,101015.38
2022-09-12T21:56:35.807Z,101001.50
2022-09-12T21:59:07.368Z,101003.00
2022-09-12T22:01:39.080Z,101003.00
2022-09-12T22:04:12.060Z,101005.31
2022-09-12T22:06:43.726Z,100999.88
2022-09-12T22:09:18.356Z,100999.09
2022-09-12T22:11:54.676Z,100993.25
2022-09-12T22:14:26.176Z,100991.72
2022-09-12T22:16:58.396Z,100986.69
2022-09-12T22:19:29.897Z,100975.84
2022-09-12T22:22:13.947Z,100975.50
2022-09-12T22:25:16.177Z,100971.56
2022-09-12T22:27:47.817Z,100964.06
2022-09-12T22:30:19.257Z,100953.78
2022-09-12T22:32:51.687Z,100951.25
2022-09-12T22:35:23.397Z,100953.69
2022-09-12T22:37:55.137Z,100961.81
2022-09-12T22:40:29.248Z,100958.13
2022-09-12T22:43:01.007Z,100953.94
2022-09-12T22:45:32.631Z,100944.50
2022-09-12T22:48:08.585Z,100939.00
2022-09-12T22:50:40.784Z,100932.53
2022-09-12T22:53:13.123Z,100935.34
2022-09-12T22:55:49.160Z,100920.94
2022-09-12T22:58:20.949Z,100921.16
2022-09-12T23:00:53.348Z,100916.88
2022-09-12T23:03:33.214Z,100911.53
2022-09-12T23:06:05.451Z,100916.06
2022-09-12T23:08:40.043Z,100906.31
2022-09-12T23:11:17.384Z,100906.84
2022-09-12T23:13:51.060Z,100905.41
2022-09-12T23:16:25.132Z,100906.75
2022-09-12T23:18:57.236Z,100905.16
2022-09-12T23:21:30.221Z,100898.38
2022-09-12T23:24:02.525Z,100895.81
2022-09-12T23:26:37.335Z,100902.13
2022-09-12T23:29:09.405Z,100905.81
2022-09-12T23:31:44.048Z,100903.78
2022-09-12T23:34:16.214Z,100901.81
2022-09-12T23:36:48.054Z,100896.03
2022-09-12T23:39:20.185Z,100897.88
2022-09-12T23:41:54.655Z,100895.88
2022-09-12T23:44:26.735Z,100888.75
2022-09-12T23:46:58.386Z,100890.50
2022-09-12T23:49:30.393Z,100888.75
2022-09-12T23:52:02.074Z,100886.97
2022-09-12T23:54:37.215Z,100881.09
2022-09-12T23:57:11.555Z,100879.03
2022-09-12T23:59:43.624Z,100879.56
